Nearby METAR Reports

 

KAIK - Aiken, South Carolina, USA
Distance from station: NE 8mi, 13km
Updated: Tue, 03-Aug-2021 23:35 EDT
Clear
Clear
 Wind from NNE
Wind: NNE 9 km/h
Temperature: 70°F , 21°C
Dew Point: 68°F , 20°C
Humidity: 94%
Barometer: 30.00 inHg , 1015.9 hPa
Clouds: Clear
Visibility: 16 km
2021/08/04 03:35 KAIK 040335Z AUTO 02005KT 10SM CLR 21/20 A3000 RMK AO2 T02130198
KDNL - Augusta/Daniel, Georgia, USA
Distance from station: WSW 16mi, 26km
Updated: Tue, 03-Aug-2021 22:53 EDT
Clear
Clear
 Wind from NE
Wind: NE 7 km/h
Temperature: 75°F , 24°C
Dew Point: 66°F , 19°C
Humidity: 74%
Barometer: 29.99 inHg , 1015.6 hPa
Clouds: Clear
Visibility: 16 km
2021/08/04 02:53 KDNL 040253Z AUTO 05004KT 10SM CLR 24/19 A2999 RMK AO2 SLP149 T02440194 51011
 
KAGS - Augusta/Bush, Georgia, USA
Distance from station: SW 18mi, 28km
Updated: Tue, 03-Aug-2021 23:53 EDT
Few Clouds
Few Clouds
 Wind from N
Wind: N 7 km/h
Temperature: 72°F , 22°C
Dew Point: 68°F , 20°C
Humidity: 88%
Barometer: 29.96 inHg , 1014.6 hPa
Clouds: Few Clouds
Visibility: 16 km
Cloud details: Few Clouds 8000 ft
2021/08/04 03:53 KAGS 040353Z 01004KT 10SM FEW080 22/20 A2996 RMK AO2 SLP142 T02220200
KBNL - Barnwell, South Carolina, USA
Distance from station: SE 33mi, 52km
Updated: Tue, 03-Aug-2021 23:55 EDT
Clear
Clear
 Wind from NNE
Wind: NNE 11 km/h
Temperature: 72°F , 22°C
Dew Point: 68°F , 20°C
Humidity: 88%
Barometer: 29.96 inHg , 1014.6 hPa
Clouds: Clear
Visibility: 16 km
2021/08/04 03:55 KBNL 040355Z AUTO 03006KT 10SM CLR 22/20 A2996 RMK AO2
 
KHQU - Mcduffie/Thomson, Georgia, USA
Distance from station: W 42mi, 68km
Updated: Tue, 03-Aug-2021 23:35 EDT
Overcast
Overcast
 Wind from ENE
Wind: ENE 9 km/h
Temperature: 73°F , 23°C
Dew Point: 68°F , 20°C
Humidity: 83%
Barometer: 29.98 inHg , 1015.2 hPa
Clouds: Overcast
Visibility: 16 km
Cloud details: Overcast 5000 ft
2021/08/04 03:35 KHQU 040335Z AUTO 07005KT 10SM OVC050 23/20 A2998 RMK AO2 T02340203
KCAE - Columbia, South Carolina, USA
Distance from station: ENE 46mi, 74km
Updated: Tue, 03-Aug-2021 22:56 EDT
Mostly cloudy
Mostly cloudy
 Wind from NE
Wind: NE 19 km/h
Temperature: 73°F , 23°C
Dew Point: 66°F , 19°C
Humidity: 78%
Barometer: 29.98 inHg , 1015.2 hPa
Clouds: Mostly cloudy
Visibility: 16 km
Cloud details: Partly cloudy 1700 ft
Mostly cloudy 4100 ft
2021/08/04 02:56 KCAE 040256Z 04010KT 10SM SCT017 BKN041 23/19 A2998 RMK AO2 SLP149 T02280189 52009
 
KAQX - Allendale, South Carolina, USA
Distance from station: SE 50mi, 80km
Updated: Tue, 03-Aug-2021 23:35 EDT
Mostly cloudy
Mostly cloudy
 Wind from calm
Wind: Calm
Temperature: 73°F , 23°C
Dew Point: 70°F , 21°C
Humidity: 89%
Barometer: 29.94 inHg , 1013.9 hPa
Clouds: Mostly cloudy
Visibility: 16 km
Cloud details: Few Clouds 3700 ft
Partly cloudy 7500 ft
Mostly cloudy 12000 ft
2021/08/04 03:35 KAQX 040335Z AUTO 00000KT 10SM FEW037 SCT075 BKN120 23/21 A2994 RMK AO2